Time;durP1;ratioP1;P1;durP2;ratioP2;P2;SDS_P1;SDS_P2;PMS_P1;PMS_P2;Temp;Humidity;BMP_temperature;BMP_pressure;BME280_temperature;BME280_humidity;BME280_pressure;Samples;Min_cycle;Max_cycle;Signal;HPM_P1;HPM_P2
2021/01/03 00:03:46;;;;;;;5.43;2.00;;;;;;;4.79;68.16;99743.63;10421010;28;20045;-56
2021/01/03 00:08:48;;;;;;;5.57;2.47;;;;;;;4.80;67.98;99740.13;10420705;28;20486;-56
2021/01/03 00:13:50;;;;;;;5.60;2.40;;;;;;;4.80;68.37;99739.25;10421798;28;20053;-56
2021/01/03 00:18:52;;;;;;;6.85;2.40;;;;;;;4.86;68.17;99749.31;10420054;28;20470;-56
2021/01/03 00:23:54;;;;;;;4.55;1.98;;;;;;;4.90;67.56;99755.19;10420388;28;20064;-55
2021/01/03 00:28:55;;;;;;;5.85;2.38;;;;;;;4.82;68.08;99761.69;10419472;28;20068;-56
2021/01/03 00:33:58;;;;;;;5.13;2.08;;;;;;;4.76;68.35;99767.25;10420109;28;20119;-55
2021/01/03 00:38:59;;;;;;;5.20;2.40;;;;;;;4.76;67.75;99774.25;10419376;28;20060;-54
2021/01/03 00:44:02;;;;;;;6.82;2.47;;;;;;;4.80;68.16;99780.94;10434769;28;20107;-58
2021/01/03 00:49:04;;;;;;;5.72;1.90;;;;;;;4.83;67.96;99778.16;10418692;28;20049;-57
2021/01/03 00:54:06;;;;;;;5.65;2.67;;;;;;;4.90;67.91;99795.09;10419216;28;20057;-56
2021/01/03 00:59:08;;;;;;;9.10;2.70;;;;;;;4.94;67.72;99793.97;10419053;28;20126;-54
2021/01/03 01:04:10;;;;;;;6.22;2.30;;;;;;;4.82;68.01;99794.72;10418377;28;20402;-57
2021/01/03 01:09:12;;;;;;;7.82;2.58;;;;;;;4.81;68.58;99795.66;10417975;28;20453;-54
2021/01/03 01:14:15;;;;;;;6.27;2.87;;;;;;;4.81;68.18;99803.47;10417956;28;20497;-55
2021/01/03 01:19:17;;;;;;;5.57;2.60;;;;;;;4.69;68.65;99799.81;10418263;28;20049;-54
2021/01/03 01:24:19;;;;;;;7.20;2.80;;;;;;;4.48;68.63;99801.91;10418250;28;20057;-53
2021/01/03 01:29:20;;;;;;;6.75;2.30;;;;;;;4.30;69.13;99813.38;10417771;28;20045;-56
2021/01/03 01:34:23;;;;;;;6.80;2.70;;;;;;;4.32;68.96;99821.97;10417328;28;20058;-55
2021/01/03 01:39:25;;;;;;;6.22;2.67;;;;;;;4.32;68.65;99821.97;10417170;28;20549;-55
2021/01/03 01:44:26;;;;;;;5.60;2.38;;;;;;;4.39;68.52;99823.28;10418063;28;20395;-55
2021/01/03 01:49:29;;;;;;;4.72;1.90;;;;;;;4.39;68.39;99828.47;10416929;28;20049;-56
2021/01/03 01:54:36;;;;;;;7.05;1.90;;;;;;;4.42;68.19;99833.50;10417538;28;20064;-54
2021/01/03 01:59:44;;;;;;;5.50;1.85;;;;;;;4.35;68.55;99840.00;10417281;28;20140;-56
2021/01/03 02:04:53;;;;;;;4.28;1.50;;;;;;;4.31;68.63;99835.88;10417523;28;20046;-55
2021/01/03 02:10:04;;;;;;;3.28;1.15;;;;;;;4.27;68.54;99847.41;10417061;28;20045;-55
2021/01/03 02:15:10;;;;;;;3.85;1.30;;;;;;;4.19;68.31;99852.19;10416980;28;20584;-55
2021/01/03 02:20:15;;;;;;;3.15;1.10;;;;;;;4.11;67.84;99848.25;10417643;28;20524;-55
2021/01/03 02:25:19;;;;;;;4.20;1.42;;;;;;;3.94;68.33;99863.97;10416835;28;20429;-55
2021/01/03 02:30:23;;;;;;;5.55;1.42;;;;;;;3.89;68.58;99855.59;10419379;28;20049;-55
2021/01/03 02:35:24;;;;;;;;;;;;;;;3.98;68.39;99862.88;10440833;28;20061;-56
2021/01/03 02:40:27;;;;;;;5.40;1.42;;;;;;;4.05;68.48;99865.97;10424704;28;19961;-55
2021/01/03 02:45:32;;;;;;;3.40;1.20;;;;;;;4.01;69.07;99870.53;10424133;28;20068;-55
2021/01/03 02:50:33;;;;;;;3.70;1.30;;;;;;;3.98;69.30;99870.69;10424235;28;20041;-55
2021/01/03 02:55:36;;;;;;;3.30;1.00;;;;;;;3.78;68.96;99868.34;10423211;28;20045;-55
2021/01/03 03:00:38;;;;;;;3.15;0.90;;;;;;;3.63;69.40;99870.00;10423632;28;20072;-55
2021/01/03 03:05:40;;;;;;;4.15;1.00;;;;;;;3.60;69.30;99872.75;10422881;28;20057;-53
2021/01/03 03:10:42;;;;;;;3.20;1.10;;;;;;;3.69;69.33;99873.13;10423833;28;20041;-55
2021/01/03 03:15:44;;;;;;;2.63;0.90;;;;;;;3.77;68.57;99871.88;10423040;28;20139;-55
2021/01/03 03:20:46;;;;;;;2.95;1.00;;;;;;;3.80;68.69;99882.09;10424046;28;20100;-53
2021/01/03 03:25:49;;;;;;;2.10;0.60;;;;;;;3.95;68.38;99891.66;10422984;28;20053;-56
2021/01/03 03:30:51;;;;;;;2.20;0.77;;;;;;;4.02;68.10;99899.97;10437882;28;20072;-57
2021/01/03 03:35:52;;;;;;;2.30;0.77;;;;;;;3.97;67.92;99909.78;10422348;28;20076;-56
2021/01/03 03:40:55;;;;;;;2.50;0.80;;;;;;;3.92;67.47;99904.84;10422012;28;20106;-54
2021/01/03 03:45:56;;;;;;;2.65;1.05;;;;;;;3.90;67.84;99919.69;10421210;28;20053;-54
2021/01/03 03:50:58;;;;;;;3.13;0.90;;;;;;;3.87;67.84;99909.44;10421459;28;20050;-54
2021/01/03 03:56:00;;;;;;;3.20;1.10;;;;;;;3.77;67.81;99916.06;10421183;28;20053;-54
2021/01/03 04:01:02;;;;;;;2.80;0.80;;;;;;;3.78;68.10;99915.13;10421295;28;20049;-55
2021/01/03 04:06:04;;;;;;;2.47;0.80;;;;;;;3.93;67.92;99924.72;10421142;28;20053;-55
2021/01/03 04:11:07;;;;;;;2.60;0.80;;;;;;;3.78;67.58;99934.19;10436079;28;20479;-55
2021/01/03 04:16:09;;;;;;;3.88;1.58;;;;;;;3.68;68.40;99933.81;10420936;28;20493;-54
2021/01/03 04:21:11;;;;;;;4.18;1.00;;;;;;;3.81;68.27;99940.97;10420289;28;20045;-55
2021/01/03 04:26:18;;;;;;;4.75;1.13;;;;;;;3.93;67.66;99951.56;10419772;28;20053;-58
2021/01/03 04:31:21;;;;;;;2.20;0.90;;;;;;;3.98;67.95;99956.53;10419582;28;20079;-54
2021/01/03 04:36:22;;;;;;;6.15;1.77;;;;;;;3.98;67.84;99959.13;10419519;28;20053;-56
2021/01/03 04:41:29;;;;;;;3.67;1.30;;;;;;;3.96;67.81;99963.56;10435138;28;20049;-55
2021/01/03 04:46:35;;;;;;;3.15;1.10;;;;;;;3.96;67.52;99966.16;10420092;28;20060;-55
2021/01/03 04:51:47;;;;;;;3.92;1.45;;;;;;;3.85;68.03;99968.53;10419984;28;20435;-54
2021/01/03 04:56:55;;;;;;;4.88;1.70;;;;;;;3.76;67.79;99969.84;10436289;28;20481;-55
2021/01/03 05:02:35;;;;;;;5.10;1.70;;;;;;;3.76;67.97;99984.59;10418358;28;20046;-56
2021/01/03 05:07:41;;;;;;;5.03;1.58;;;;;;;3.81;67.60;99987.78;10419271;28;20049;-55
2021/01/03 05:12:58;;;;;;;5.35;2.08;;;;;;;3.77;67.75;99983.69;10418100;28;20492;-55
2021/01/03 05:18:01;;;;;;;4.75;2.10;;;;;;;3.91;68.19;99994.19;10418528;28;20080;-55
2021/01/03 05:23:24;;;;;;;5.45;2.47;;;;;;;3.89;67.90;99976.06;10418312;28;20057;-54
2021/01/03 05:28:29;;;;;;;6.67;2.47;;;;;;;3.79;68.14;99985.28;10430927;28;20049;-51
2021/01/03 05:33:31;;;;;;;4.93;2.20;;;;;;;3.83;68.21;99980.75;10418165;28;20529;-51
2021/01/03 05:38:36;;;;;;;8.45;2.30;;;;;;;3.88;68.12;99978.75;10418586;28;20051;-53
2021/01/03 05:43:39;;;;;;;6.70;2.38;;;;;;;3.92;67.81;99975.91;10417891;28;20045;-53
2021/01/03 05:48:45;;;;;;;7.32;1.98;;;;;;;3.96;67.55;99976.56;10418492;28;20057;-56
2021/01/03 05:53:46;;;;;;;6.05;2.28;;;;;;;3.90;67.54;99972.53;10417047;28;20045;-55
2021/01/03 05:58:54;;;;;;;7.25;2.10;;;;;;;3.98;67.62;99979.09;10417996;28;20069;-53
2021/01/03 06:04:05;;;;;;;6.53;2.20;;;;;;;4.06;67.29;99990.75;10422427;28;20370;-54
2021/01/03 06:09:08;;;;;;;6.13;2.70;;;;;;;4.14;67.69;100006.81;10432476;28;20099;-55
2021/01/03 06:14:12;;;;;;;6.40;2.22;;;;;;;4.19;67.14;100005.69;10430157;28;20064;-56
2021/01/03 06:19:29;;;;;;;4.88;2.03;;;;;;;4.25;66.94;100026.19;10448280;28;20056;-54
2021/01/03 06:24:31;;;;;;;5.65;2.15;;;;;;;4.29;66.83;100035.53;10430463;28;20465;-56
2021/01/03 06:29:39;;;;;;;6.10;2.42;;;;;;;4.33;67.12;100037.88;10430374;28;20041;-56
2021/01/03 06:34:42;;;;;;;6.93;2.88;;;;;;;4.42;66.43;100036.53;10431475;28;20041;-54
2021/01/03 06:39:53;;;;;;;6.13;2.15;;;;;;;4.28;66.88;100032.09;10446015;28;20393;-54
2021/01/03 06:45:29;;;;;;;7.00;2.65;;;;;;;4.11;67.26;100038.19;10430732;28;20053;-55
2021/01/03 06:51:17;;;;;;;6.25;2.78;;;;;;;4.02;68.21;100050.84;10429323;28;20390;-54
2021/01/03 06:56:37;;;;;;;7.82;2.60;;;;;;;4.15;67.75;100070.09;10429884;28;20431;-55
2021/01/03 07:01:41;;;;;;;6.65;2.58;;;;;;;4.16;67.91;100061.38;10429367;28;20123;-55
2021/01/03 07:06:46;;;;;;;8.50;3.17;;;;;;;4.28;67.55;100083.28;10429368;28;20094;-55
2021/01/03 07:11:49;;;;;;;7.07;2.63;;;;;;;4.37;67.92;100101.00;10429845;28;20471;-54
2021/01/03 07:16:55;;;;;;;7.20;2.90;;;;;;;4.42;67.82;100092.97;10425976;28;20060;-55
2021/01/03 07:21:58;;;;;;;9.20;2.95;;;;;;;4.47;67.83;100090.97;10422582;28;20057;-55
2021/01/03 07:27:30;;;;;;;7.53;2.63;;;;;;;4.48;67.67;100082.22;10422227;28;20397;-56
2021/01/03 07:32:46;;;;;;;7.28;2.95;;;;;;;4.55;68.08;100094.81;10422374;28;20056;-54
2021/01/03 07:37:51;;;;;;;7.18;2.95;;;;;;;4.74;68.64;100107.72;10423478;28;20057;-54
2021/01/03 07:43:01;;;;;;;6.75;2.42;;;;;;;4.93;67.82;100109.31;10423887;28;20041;-61
2021/01/03 07:48:04;;;;;;;9.05;2.90;;;;;;;4.85;67.86;100118.38;10421633;28;20053;-55
2021/01/03 07:53:26;;;;;;;8.23;3.20;;;;;;;4.62;68.33;100124.00;10421649;28;20053;-56
2021/01/03 07:58:27;;;;;;;6.97;2.80;;;;;;;4.48;67.69;100119.50;10437203;28;20148;-55
2021/01/03 08:03:31;;;;;;;5.75;2.10;;;;;;;4.46;67.97;100118.75;10421050;28;20053;-55
2021/01/03 08:08:33;;;;;;;6.88;2.67;;;;;;;4.50;67.58;100122.06;10420716;28;20437;-54
2021/01/03 08:13:42;;;;;;;6.70;3.00;;;;;;;4.59;67.71;100132.81;10421572;28;20386;-55
2021/01/03 08:18:54;;;;;;;6.15;2.78;;;;;;;4.75;67.25;100150.22;10422066;28;20052;-55
2021/01/03 08:24:04;;;;;;;6.22;2.50;;;;;;;4.81;67.93;100150.72;10436004;28;20482;-57
2021/01/03 08:29:11;;;;;;;9.10;3.03;;;;;;;4.76;67.44;100141.47;10420198;28;20049;-55
2021/01/03 08:34:16;;;;;;;7.35;2.60;;;;;;;4.77;68.32;100135.31;10419865;28;20394;-55
2021/01/03 08:39:18;;;;;;;6.75;3.08;;;;;;;4.93;67.94;100133.59;10419818;28;20132;-54
2021/01/03 08:44:22;;;;;;;7.38;2.90;;;;;;;5.12;67.40;100137.78;10420276;28;20063;-55
2021/01/03 08:49:25;;;;;;;10.88;3.10;;;;;;;5.15;67.21;100125.41;10419675;28;20057;-55
2021/01/03 08:54:26;;;;;;;6.47;2.75;;;;;;;5.16;67.36;100123.66;10419014;28;20198;-54
2021/01/03 08:59:29;;;;;;;8.27;2.97;;;;;;;5.25;67.23;100126.56;10419548;28;20136;-54
2021/01/03 09:04:32;;;;;;;10.13;3.47;;;;;;;5.29;67.29;100122.84;10419625;28;20421;-55
2021/01/03 09:09:34;;;;;;;9.63;3.20;;;;;;;5.22;67.30;100129.34;10419095;28;20046;-56
2021/01/03 09:14:45;;;;;;;7.80;3.03;;;;;;;5.16;66.97;100136.66;10418779;28;20061;-55
2021/01/03 09:19:55;;;;;;;11.65;2.95;;;;;;;5.31;67.23;100141.03;10418891;28;20056;-54
2021/01/03 09:24:59;;;;;;;9.65;3.60;;;;;;;5.40;66.26;100135.28;10418619;28;20103;-55
2021/01/03 09:30:08;;;;;;;;;;;;;;;5.28;66.97;100136.81;10434478;28;20394;-56
2021/01/03 09:35:26;;;;;;;7.65;3.05;;;;;;;5.17;67.11;100139.22;10417847;28;19929;-54
2021/01/03 09:40:38;;;;;;;10.73;4.47;;;;;;;5.27;67.62;100155.16;10418382;28;20386;-55
2021/01/03 09:45:56;;;;;;;8.10;3.50;;;;;;;5.21;67.53;100155.50;10418578;28;20378;-56
2021/01/03 09:51:14;;;;;;;10.27;3.75;;;;;;;5.03;67.57;100147.78;10417874;28;20620;-55
2021/01/03 09:56:23;;;;;;;9.50;3.90;;;;;;;4.84;67.87;100152.31;10418695;28;20045;-55
2021/01/03 10:01:32;;;;;;;8.05;3.65;;;;;;;4.97;68.00;100137.69;10417598;28;20057;-55
2021/01/03 10:06:38;;;;;;;8.05;3.55;;;;;;;5.17;68.10;100126.19;10417328;28;20153;-55
2021/01/03 10:11:41;;;;;;;12.13;4.10;;;;;;;5.31;68.16;100151.47;10417010;28;20053;-54
2021/01/03 10:16:43;;;;;;;12.23;4.22;;;;;;;5.49;68.15;100166.06;10417305;28;20099;-55
2021/01/03 10:21:46;;;;;;;14.35;5.40;;;;;;;5.71;67.58;100175.28;10416675;28;20371;-55
2021/01/03 10:26:50;;;;;;;8.13;3.85;;;;;;;5.70;66.60;100165.78;10416663;28;20073;-54
2021/01/03 10:31:52;;;;;;;;;;;;;;;5.70;67.21;100156.16;10416712;28;20136;-55
2021/01/03 10:36:57;;;;;;;9.15;3.85;;;;;;;5.74;66.54;100167.28;10417653;28;20344;-55
2021/01/03 10:42:01;;;;;;;21.00;4.88;;;;;;;5.81;66.69;100173.81;10415864;28;20045;-54
2021/01/03 10:47:03;;;;;;;7.50;3.08;;;;;;;5.74;66.79;100175.09;10416077;28;20140;-56
2021/01/03 10:52:06;;;;;;;7.63;3.50;;;;;;;5.67;66.97;100174.59;10419507;28;20045;-55
2021/01/03 10:57:08;;;;;;;7.53;3.10;;;;;;;5.85;66.64;100190.97;10425999;28;20041;-60
2021/01/03 11:02:09;;;;;;;11.43;3.78;;;;;;;5.80;66.16;100190.41;10423605;28;20123;-54
2021/01/03 11:07:12;;;;;;;10.25;3.75;;;;;;;5.80;66.56;100189.56;10423261;28;20053;-56
2021/01/03 11:12:18;;;;;;;8.60;3.28;;;;;;;5.81;66.74;100205.09;10423709;28;20498;-55
2021/01/03 11:17:19;;;;;;;8.95;3.95;;;;;;;5.82;66.28;100208.56;10423093;28;20056;-55
2021/01/03 11:22:22;;;;;;;7.35;3.30;;;;;;;5.76;66.81;100209.78;10423089;28;20053;-57
2021/01/03 11:27:24;;;;;;;9.48;4.85;;;;;;;5.82;66.69;100198.97;10424213;28;20045;-59
2021/01/03 11:32:27;;;;;;;8.80;3.90;;;;;;;5.72;67.00;100206.47;10424057;28;20045;-54
2021/01/03 11:37:30;;;;;;;7.15;3.00;;;;;;;5.74;67.13;100206.41;10422254;28;20344;-57
2021/01/03 11:42:33;;;;;;;12.60;4.00;;;;;;;5.68;66.59;100212.78;10422344;28;20060;-54
2021/01/03 11:47:36;;;;;;;8.05;3.88;;;;;;;5.50;67.55;100219.88;10422084;28;20079;-55
2021/01/03 11:52:39;;;;;;;9.38;3.85;;;;;;;5.70;67.03;100220.56;10422186;28;20045;-54
2021/01/03 11:57:41;;;;;;;12.18;6.25;;;;;;;5.67;67.43;100225.94;10421439;28;20049;-54
2021/01/03 12:02:43;;;;;;;12.30;4.07;;;;;;;5.49;67.32;100218.22;10420490;28;20049;-55
2021/01/03 12:07:46;;;;;;;12.50;4.25;;;;;;;5.27;67.48;100225.56;10436684;28;20050;-54
2021/01/03 12:12:48;;;;;;;8.77;4.23;;;;;;;5.12;67.25;100213.34;10420465;28;20536;-59
2021/01/03 12:17:49;;;;;;;10.95;4.72;;;;;;;5.00;67.35;100213.09;10420454;28;20056;-57
2021/01/03 12:22:52;;;;;;;12.48;5.05;;;;;;;5.12;67.27;100208.16;10420200;28;20107;-57
2021/01/03 12:27:54;;;;;;;13.55;5.40;;;;;;;5.08;66.58;100208.31;10435756;28;20491;-57
2021/01/03 12:32:55;;;;;;;9.23;4.68;;;;;;;4.76;66.73;100222.22;10421250;28;20156;-55
2021/01/03 12:37:59;;;;;;;12.43;5.55;;;;;;;4.59;66.73;100203.13;10419378;28;20057;-55
2021/01/03 12:43:02;;;;;;;11.10;5.00;;;;;;;4.51;67.86;100217.44;10419687;28;20057;-53
2021/01/03 12:48:04;;;;;;;11.13;4.53;;;;;;;4.42;66.78;100215.31;10419753;28;20049;-54
2021/01/03 12:53:07;;;;;;;12.00;4.22;;;;;;;4.18;67.35;100201.78;10419411;28;20057;-57
2021/01/03 12:58:08;;;;;;;11.20;5.15;;;;;;;4.00;67.61;100214.78;10418630;28;20478;-55
2021/01/03 13:03:10;;;;;;;12.23;4.50;;;;;;;3.94;67.67;100217.69;10419907;28;20482;-55
2021/01/03 13:08:13;;;;;;;11.25;4.80;;;;;;;4.08;67.07;100217.88;10420102;28;20182;-55
2021/01/03 13:13:15;;;;;;;11.15;4.40;;;;;;;4.20;67.23;100226.81;10417777;28;20050;-56
2021/01/03 13:18:16;;;;;;;11.63;4.63;;;;;;;4.25;67.34;100231.78;10419375;28;20045;-55
2021/01/03 13:23:19;;;;;;;14.20;4.95;;;;;;;4.32;67.06;100225.38;10417877;28;20041;-55
2021/01/03 13:28:21;;;;;;;14.68;6.30;;;;;;;4.21;67.29;100230.25;10433339;28;20053;-55
2021/01/03 13:33:23;;;;;;;13.35;5.57;;;;;;;4.10;67.06;100229.06;10418686;28;20052;-57
2021/01/03 13:38:25;;;;;;;13.52;6.13;;;;;;;4.08;67.31;100228.28;10417584;28;20367;-55
2021/01/03 13:43:27;;;;;;;17.33;7.75;;;;;;;4.04;67.56;100233.72;10417281;28;20045;-55
2021/01/03 13:48:28;;;;;;;21.55;8.25;;;;;;;3.92;67.01;100229.97;10416951;28;20437;-57
2021/01/03 13:53:31;;;;;;;27.73;10.90;;;;;;;3.87;67.96;100230.19;10416554;28;20131;-56
2021/01/03 13:58:33;;;;;;;28.27;9.57;;;;;;;4.12;67.67;100226.34;10416582;28;20061;-56
2021/01/03 14:03:35;;;;;;;18.98;9.38;;;;;;;4.29;67.24;100217.72;10432513;28;20471;-57
2021/01/03 14:08:37;;;;;;;18.40;8.00;;;;;;;4.39;67.02;100216.31;10417072;28;20049;-55
2021/01/03 14:13:39;;;;;;;21.00;9.10;;;;;;;4.39;67.48;100221.53;10416573;28;20118;-55
2021/01/03 14:18:41;;;;;;;20.52;9.73;;;;;;;4.30;67.01;100222.00;10416567;28;20072;-55
2021/01/03 14:23:43;;;;;;;31.13;11.43;;;;;;;4.13;66.89;100225.47;10417118;28;20045;-55
2021/01/03 14:28:45;;;;;;;30.85;10.15;;;;;;;3.99;67.38;100222.69;10424943;28;20413;-54
2021/01/03 14:33:46;;;;;;;31.73;11.27;;;;;;;4.04;67.17;100210.31;10424381;28;20057;-53
2021/01/03 14:38:55;;;;;;;34.80;11.80;;;;;;;4.08;66.89;100199.66;10424586;28;20390;-54
2021/01/03 14:43:57;;;;;;;26.00;10.27;;;;;;;4.20;67.17;100199.97;10424187;28;20049;-59
2021/01/03 14:49:18;;;;;;;28.58;11.73;;;;;;;4.34;66.75;100194.88;10423166;28;20042;-54
2021/01/03 14:54:34;;;;;;;24.95;10.57;;;;;;;4.32;67.06;100201.94;10425185;28;20095;-56
2021/01/03 14:59:58;;;;;;;24.33;9.60;;;;;;;4.24;67.24;100196.28;10424586;28;20061;-54
2021/01/03 15:05:00;;;;;;;31.67;11.98;;;;;;;4.12;66.98;100188.16;10423391;28;20049;-55
2021/01/03 15:10:08;;;;;;;26.60;12.82;;;;;;;4.21;67.21;100191.22;10423562;28;20045;-54
2021/01/03 15:15:25;;;;;;;23.73;11.10;;;;;;;4.26;66.83;100184.03;10423639;28;20140;-52
2021/01/03 15:20:30;;;;;;;30.27;11.88;;;;;;;4.19;66.51;100203.47;10424346;28;20057;-55
2021/01/03 15:25:38;;;;;;;27.75;11.75;;;;;;;4.04;67.06;100218.13;10424237;28;20052;-56
2021/01/03 15:30:48;;;;;;;32.45;11.85;;;;;;;3.88;67.15;100218.03;10424021;28;20042;-55
2021/01/03 15:35:51;;;;;;;31.00;12.07;;;;;;;3.62;67.34;100216.69;10422282;28;20050;-55
2021/01/03 15:40:56;;;;;;;35.30;14.77;;;;;;;3.46;67.66;100221.78;10421932;28;20378;-54
2021/01/03 15:46:02;;;;;;;37.67;15.13;;;;;;;3.45;68.52;100220.94;10423545;28;20046;-59
2021/01/03 15:51:04;;;;;;;44.95;16.48;;;;;;;3.44;67.91;100223.59;10421747;28;20501;-55
2021/01/03 15:56:07;;;;;;;26.85;11.52;;;;;;;3.51;68.19;100219.81;10421608;28;20053;-56
2021/01/03 16:01:08;;;;;;;26.60;12.73;;;;;;;3.53;68.70;100224.94;10436781;28;20380;-54
2021/01/03 16:06:10;;;;;;;35.03;13.80;;;;;;;3.52;68.29;100211.09;10420778;28;20049;-53
2021/01/03 16:11:14;;;;;;;40.63;15.23;;;;;;;3.56;68.42;100206.59;10421613;28;20062;-54
2021/01/03 16:16:16;;;;;;;35.58;11.95;;;;;;;3.58;68.53;100208.19;10422081;28;20045;-56
2021/01/03 16:21:17;;;;;;;41.95;15.68;;;;;;;3.57;68.70;100209.13;10420299;28;20045;-55
2021/01/03 16:26:33;;;;;;;54.28;19.83;;;;;;;3.55;68.64;100197.94;10420940;28;20148;-57
2021/01/03 16:31:36;;;;;;;46.42;17.80;;;;;;;3.63;68.13;100195.84;10420904;28;20056;-59
2021/01/03 16:37:06;;;;;;;;;;;;;;;3.64;68.15;100197.50;10420565;28;20479;-54
2021/01/03 16:42:38;;;;;;;41.40;16.05;;;;;;;3.69;68.36;100198.13;10420021;28;19925;-55
2021/01/03 16:48:02;;;;;;;49.05;16.92;;;;;;;3.85;68.12;100190.41;10410252;28;20119;-62
2021/01/03 16:53:09;;;;;;;51.47;18.45;;;;;;;3.91;67.95;100173.66;10420220;28;20114;-55
2021/01/03 16:58:37;;;;;;;44.30;16.25;;;;;;;3.96;67.80;100182.06;10419966;28;20087;-56
2021/01/03 17:03:44;;;;;;;43.28;16.85;;;;;;;3.85;68.30;100179.19;10419310;28;20045;-54
2021/01/03 17:08:55;;;;;;;58.35;19.20;;;;;;;3.89;68.47;100173.72;10418770;28;20045;-54
2021/01/03 17:14:09;;;;;;;57.28;19.77;;;;;;;3.96;67.92;100161.25;10419266;28;20045;-56
2021/01/03 17:19:24;;;;;;;47.58;17.75;;;;;;;3.98;67.96;100162.03;10418513;28;20115;-53
2021/01/03 17:24:39;;;;;;;56.53;19.63;;;;;;;3.85;68.27;100161.81;10419870;28;20041;-55
2021/01/03 17:29:51;;;;;;;33.15;15.63;;;;;;;3.80;68.44;100168.16;10418199;28;20045;-55
2021/01/03 17:35:03;;;;;;;38.17;14.02;;;;;;;3.66;68.32;100169.69;10417856;28;20433;-54
2021/01/03 17:40:10;;;;;;;48.60;17.58;;;;;;;3.65;68.76;100165.38;10417720;28;20451;-55
2021/01/03 17:45:20;;;;;;;53.00;17.75;;;;;;;3.63;68.83;100166.38;10418224;28;20049;-57
2021/01/03 17:50:24;;;;;;;51.85;17.88;;;;;;;3.67;68.81;100163.56;10417289;28;20045;-53
2021/01/03 17:55:26;;;;;;;57.65;20.77;;;;;;;3.61;68.52;100156.06;10417808;28;20064;-56
2021/01/03 18:00:28;;;;;;;81.63;21.42;;;;;;;3.55;69.24;100166.75;10416342;28;20491;-54
2021/01/03 18:05:33;;;;;;;63.47;21.03;;;;;;;3.64;69.08;100163.72;10432834;28;20359;-55
2021/01/03 18:10:34;;;;;;;66.28;22.70;;;;;;;3.76;69.34;100156.22;10416971;28;20057;-55
2021/01/03 18:15:37;;;;;;;57.92;22.45;;;;;;;3.93;69.21;100161.41;10416388;28;20514;-54
2021/01/03 18:20:39;;;;;;;56.90;23.48;;;;;;;3.97;68.43;100152.53;10417060;28;20054;-56
2021/01/03 18:25:41;;;;;;;63.67;22.42;;;;;;;4.00;69.17;100144.56;10417312;28;20053;-54
2021/01/03 18:30:44;;;;;;;55.58;20.23;;;;;;;4.06;68.84;100151.22;10416801;28;20378;-54
2021/01/03 18:35:46;;;;;;;56.80;21.27;;;;;;;4.09;68.66;100153.66;10417649;28;20398;-55
2021/01/03 18:40:47;;;;;;;48.00;19.48;;;;;;;4.10;69.01;100151.00;10416248;28;20512;-55
2021/01/03 18:45:50;;;;;;;49.03;16.80;;;;;;;4.11;69.05;100160.47;10416046;28;20482;-56
2021/01/03 18:50:52;;;;;;;61.50;22.83;;;;;;;4.11;69.22;100157.88;10417597;28;20394;-55
2021/01/03 18:55:53;;;;;;;53.03;20.65;;;;;;;4.21;68.79;100150.44;10415676;28;20165;-56
2021/01/03 19:00:56;;;;;;;49.38;21.58;;;;;;;4.22;68.55;100149.53;10415843;28;20142;-56
2021/01/03 19:05:58;;;;;;;50.03;21.42;;;;;;;4.35;68.30;100150.56;10415447;28;20060;-55
2021/01/03 19:10:59;;;;;;;48.28;17.95;;;;;;;4.26;67.55;100155.41;10416216;28;20378;-54
2021/01/03 19:16:02;;;;;;;50.70;19.52;;;;;;;4.07;67.86;100145.94;10422937;28;20053;-56
2021/01/03 19:21:03;;;;;;;48.83;20.15;;;;;;;4.01;68.44;100148.03;10426587;28;20068;-56
2021/01/03 19:26:05;;;;;;;48.90;20.23;;;;;;;4.09;68.52;100148.47;10422556;28;20083;-56
2021/01/03 19:31:08;;;;;;;49.13;21.10;;;;;;;4.10;68.20;100139.75;10422930;28;20176;-55
2021/01/03 19:36:10;;;;;;;36.92;15.90;;;;;;;4.06;68.03;100149.44;10422434;28;20107;-56
2021/01/03 19:41:12;;;;;;;37.05;16.02;;;;;;;4.09;68.62;100148.47;10422137;28;20042;-53
2021/01/03 19:46:19;;;;;;;30.48;14.25;;;;;;;4.02;68.18;100150.53;10421698;28;20053;-55
2021/01/03 19:51:21;;;;;;;31.52;15.07;;;;;;;3.95;68.24;100141.38;10423290;28;20061;-54
2021/01/03 19:56:23;;;;;;;38.22;16.10;;;;;;;4.01;68.85;100140.22;10421582;28;20049;-55
2021/01/03 20:01:26;;;;;;;32.58;14.60;;;;;;;4.02;68.61;100136.69;10421696;28;20478;-54
2021/01/03 20:06:28;;;;;;;33.33;15.33;;;;;;;4.07;68.29;100140.75;10421594;28;20497;-55
2021/01/03 20:11:31;;;;;;;32.45;15.63;;;;;;;4.08;68.68;100150.22;10421012;28;20099;-54
2021/01/03 20:16:35;;;;;;;41.40;17.17;;;;;;;4.06;68.39;100136.44;10421558;28;20045;-55
2021/01/03 20:21:37;;;;;;;37.60;16.38;;;;;;;4.12;67.97;100138.72;10420454;28;20483;-53
2021/01/03 20:26:39;;;;;;;43.17;19.58;;;;;;;4.14;67.88;100136.91;10420383;28;20049;-55
2021/01/03 20:31:41;;;;;;;32.80;15.63;;;;;;;4.30;67.82;100130.91;10420010;28;20053;-59
2021/01/03 20:36:49;;;;;;;37.78;16.45;;;;;;;4.34;67.32;100138.47;10419755;28;20052;-56
2021/01/03 20:41:51;;;;;;;35.90;14.15;;;;;;;4.26;67.54;100145.84;10436055;28;20091;-55
2021/01/03 20:46:54;;;;;;;35.00;13.82;;;;;;;4.27;67.69;100144.06;10419471;28;20056;-55
2021/01/03 20:51:56;;;;;;;36.13;13.30;;;;;;;4.23;67.15;100146.00;10420703;28;20123;-53
2021/01/03 20:56:58;;;;;;;30.20;14.13;;;;;;;3.98;67.46;100146.41;10419623;28;20057;-55
2021/01/03 21:02:00;;;;;;;36.65;15.63;;;;;;;3.87;67.68;100169.53;10418695;28;20379;-55
2021/01/03 21:07:04;;;;;;;31.08;13.45;;;;;;;3.88;68.30;100150.41;10420343;28;20115;-54
2021/01/03 21:12:09;;;;;;;36.15;15.02;;;;;;;3.97;67.90;100160.31;10418655;28;20076;-53
2021/01/03 21:17:13;;;;;;;32.45;15.13;;;;;;;4.01;67.73;100153.22;10418325;28;20225;-56
2021/01/03 21:22:15;;;;;;;32.05;12.80;;;;;;;3.97;68.00;100159.50;10422598;28;20056;-54
2021/01/03 21:27:50;;;;;;;31.95;12.57;;;;;;;3.91;68.28;100158.91;10419504;28;20057;-57
2021/01/03 21:33:03;;;;;;;28.83;12.60;;;;;;;4.08;68.44;100162.41;10418413;28;20073;-54
2021/01/03 21:38:21;;;;;;;25.92;11.13;;;;;;;4.13;68.10;100166.44;10417302;28;20042;-56
2021/01/03 21:44:13;;;;;;;30.63;13.35;;;;;;;3.99;67.78;100168.91;10417336;28;20061;-54
2021/01/03 21:49:21;;;;;;;25.85;10.20;;;;;;;4.00;68.03;100174.94;10355759;28;20061;-56
2021/01/03 21:54:39;;;;;;;19.65;8.25;;;;;;;3.93;68.19;100164.00;10418097;28;20049;-54
2021/01/03 22:00:11;;;;;;;21.45;9.20;;;;;;;3.78;68.13;100159.56;10418454;28;20108;-55
2021/01/03 22:05:29;;;;;;;19.08;8.13;;;;;;;3.83;68.56;100168.00;10385474;28;20148;-55
2021/01/03 22:10:43;;;;;;;;;;;;;;;3.79;67.69;100176.88;10417751;28;20053;-57
2021/01/03 22:15:56;;;;;;;22.67;8.68;;;;;;;3.72;68.09;100159.88;10417010;28;19925;-54
2021/01/03 22:21:08;;;;;;;28.03;10.73;;;;;;;3.69;67.94;100160.88;10417020;28;20490;-56
2021/01/03 22:26:16;;;;;;;38.85;12.95;;;;;;;3.72;68.30;100152.91;10416422;28;20402;-56
2021/01/03 22:31:44;;;;;;;30.88;12.50;;;;;;;3.80;69.00;100155.16;10416305;28;20049;-55
2021/01/03 22:36:54;;;;;;;29.95;13.30;;;;;;;3.84;68.57;100146.25;10432573;28;20463;-55
2021/01/03 22:42:04;;;;;;;26.08;11.00;;;;;;;3.94;68.20;100157.88;10417461;28;20416;-55
2021/01/03 22:47:15;;;;;;;23.55;11.23;;;;;;;3.93;68.12;100138.84;10419789;28;20099;-55
2021/01/03 22:52:32;;;;;;;28.30;11.23;;;;;;;3.93;68.42;100138.00;10425264;28;20045;-56
2021/01/03 22:57:47;;;;;;;31.88;12.98;;;;;;;4.02;68.17;100141.91;10425050;28;20045;-55
2021/01/03 23:03:12;;;;;;;31.60;12.73;;;;;;;4.03;68.27;100146.16;10423420;28;20434;-57
2021/01/03 23:08:18;;;;;;;;;;;;;;;4.05;68.17;100131.34;10424888;28;20115;-56
2021/01/03 23:13:41;;;;;;;27.40;9.15;;;;;;;4.10;67.79;100126.75;10438608;28;19924;-53
2021/01/03 23:18:52;;;;;;;20.70;9.18;;;;;;;4.09;67.93;100125.88;10423627;28;20045;-55
2021/01/03 23:24:05;;;;;;;29.48;13.10;;;;;;;4.04;67.57;100125.28;10425284;28;20383;-57
2021/01/03 23:29:11;;;;;;;28.13;12.15;;;;;;;3.91;68.06;100119.88;10423780;28;20509;-54
2021/01/03 23:34:16;;;;;;;36.90;14.68;;;;;;;3.96;67.92;100122.22;10439297;28;20050;-61
2021/01/03 23:39:24;;;;;;;28.25;12.38;;;;;;;3.83;68.31;100116.00;10422263;28;20390;-55